.
WxDataArchive / Data Records for 2010-07-20
2010-07-19 July 2010 2010-07-21

Data Records for Tuesday, 20 July 2010

Time	Temp	Chill	HIndex	Humid	Dewpt	 Wind 	HiWind	WindDir	Rain 	Barom 
-----	----	-----	------	-----	-----	------	------	-------	-----	----- 
00:00	75.6	75.6	76.5	79	68.6	0	0	---	0.00	29.896 
00:05	75.6	75.6	76.4	80	69.0	0	0	---	0.00	29.896 
00:10	75.4	75.4	76.1	80	68.8	0	0	---	0.00	29.896 
00:15	75.4	75.4	76.0	81	69.1	0	0	---	0.00	29.896 
00:20	75.4	75.4	76.0	81	69.1	0	0	---	0.00	29.896 
00:25	75.3	75.3	75.9	81	69.1	0	0	---	0.00	29.896 
00:30	75.3	75.3	75.9	81	69.1	0	0	---	0.00	29.890 
00:35	75.1	75.1	75.6	81	68.9	0	0	---	0.00	29.890 
00:40	75.1	75.1	75.6	81	68.9	0	0	---	0.00	29.890 
00:45	74.9	74.9	74.9	82	69.0	0	0	---	0.00	29.882 
00:50	74.9	74.9	74.9	82	69.0	0	0	---	0.00	29.882 
00:55	74.9	74.9	74.9	82	69.0	0	0	---	0.00	29.882 
01:00	74.7	74.7	74.7	83	69.2	0	0	---	0.00	29.884 
01:05	74.7	74.7	74.7	83	69.2	0	0	---	0.00	29.884 
01:10	74.7	74.7	74.7	83	69.2	0	0	---	0.00	29.884 
01:15	74.6	74.6	74.6	84	69.4	0	0	---	0.00	29.881 
01:20	74.6	74.6	74.6	84	69.4	0	0	---	0.00	29.881 
01:25	74.6	74.6	74.6	84	69.4	0	0	---	0.00	29.881 
01:30	74.4	74.4	74.4	84	69.2	0	0	---	0.00	29.894 
01:35	74.4	74.4	74.4	85	69.6	0	0	---	0.00	29.894 
01:40	74.2	74.2	74.2	85	69.4	0	0	---	0.00	29.894 
01:45	74.2	74.2	74.2	85	69.4	0	0	---	0.00	29.900 
01:50	74.4	74.4	74.4	85	69.6	0	0	---	0.00	29.900 
01:55	74.4	74.4	74.4	85	69.6	0	0	---	0.00	29.900 
02:00	74.4	74.4	74.4	84	69.2	0	1	292	0.00	29.908 
02:05	74.6	74.6	74.6	84	69.4	0	1	292	0.00	29.908 
02:10	74.6	74.6	74.6	84	69.4	0	1	292	0.00	29.908 
02:15	74.6	74.6	74.6	84	69.4	0	0	---	0.00	29.899 
02:20	74.6	74.6	74.6	84	69.4	0	0	---	0.00	29.899 
02:25	74.4	74.4	74.4	84	69.2	0	2	292	0.00	29.899 
02:30	74.4	74.4	74.4	84	69.2	0	1	292	0.00	29.899 
02:35	74.2	74.2	74.2	84	69.0	0	0	---	0.00	29.899 
02:40	74.2	74.2	74.2	84	69.0	0	1	292	0.00	29.899 
02:45	74.0	74.0	74.0	84	68.8	0	1	292	0.00	29.892 
02:50	74.0	74.0	74.0	84	68.8	0	1	292	0.00	29.892 
02:55	74.0	74.0	74.0	84	68.8	0	2	292	0.00	29.892 
03:00	74.0	74.0	74.0	83	68.5	0	1	292	0.00	29.889 
03:05	74.0	74.0	74.0	83	68.5	0	2	292	0.00	29.889 
03:10	74.0	74.0	74.0	83	68.5	0	1	292	0.00	29.889 
03:15	73.9	73.9	73.9	83	68.4	0	3	292	0.00	29.892 
03:20	73.9	73.9	73.9	83	68.4	0	3	292	0.00	29.892 
03:25	73.7	73.7	73.7	83	68.2	1	4	270	0.00	29.892 
03:30	73.5	73.5	73.5	82	67.7	1	4	270	0.00	29.893 
03:35	73.5	73.5	73.5	81	67.3	1	4	270	0.00	29.893 
03:40	73.3	73.3	73.3	81	67.1	1	5	292	0.00	29.893 
03:45	73.2	73.2	73.2	80	66.6	2	5	270	0.00	29.892 
03:50	73.2	73.2	73.2	80	66.6	1	3	270	0.00	29.892 
03:55	72.8	72.8	72.8	80	66.3	1	3	270	0.00	29.892 
04:00	72.7	72.7	72.7	81	66.5	1	3	270	0.00	29.892 
04:05	72.5	72.5	72.5	81	66.3	1	4	270	0.00	29.892 
04:10	72.3	72.3	72.3	81	66.1	0	2	270	0.00	29.892 
04:15	72.3	72.3	72.3	81	66.1	0	1	270	0.00	29.893 
04:20	72.1	72.1	72.1	81	65.9	0	0	---	0.00	29.893 
04:25	72.0	72.0	72.0	81	65.8	0	1	270	0.00	29.893 
04:30	72.0	72.0	72.0	81	65.8	0	1	270	0.00	29.898 
04:35	72.0	72.0	72.0	81	65.8	0	1	270	0.00	29.898 
04:40	72.0	72.0	72.0	81	65.8	0	1	270	0.00	29.898 
04:45	71.8	71.8	71.8	81	65.6	0	1	270	0.00	29.894 
04:50	71.8	71.8	71.8	81	65.6	0	2	270	0.00	29.894 
04:55	71.6	71.6	71.6	82	65.8	0	1	270	0.00	29.894 
05:00	71.6	71.6	71.6	82	65.8	0	1	270	0.00	29.894 
05:05	71.5	71.5	71.5	82	65.7	0	1	270	0.00	29.894 
05:10	71.5	71.5	71.5	82	65.7	0	1	270	0.00	29.894 
05:15	71.3	71.3	71.3	82	65.5	0	2	270	0.00	29.893 
05:20	71.3	71.3	71.3	83	65.9	0	1	270	0.00	29.893 
05:25	71.1	71.1	71.1	83	65.7	0	1	270	0.00	29.893 
05:30	70.9	70.9	70.9	83	65.5	0	1	270	0.00	29.893 
05:35	70.9	70.9	70.9	84	65.8	0	1	270	0.00	29.893 
05:40	70.8	70.8	70.8	84	65.7	0	1	270	0.00	29.893 
05:45	70.8	70.8	70.8	84	65.7	0	0	---	0.00	29.898 
05:50	70.6	70.6	70.6	84	65.5	0	2	270	0.00	29.898 
05:55	70.6	70.6	70.6	84	65.5	0	1	270	0.00	29.898 
06:00	70.6	70.6	70.6	84	65.5	1	3	270	0.00	29.897 
06:05	70.6	70.6	70.6	84	65.5	0	2	270	0.00	29.897 
06:10	70.6	70.6	70.6	84	65.5	0	2	270	0.00	29.897 
06:15	70.4	70.4	70.4	84	65.3	0	2	270	0.00	29.899 
06:20	70.4	70.4	70.4	84	65.3	0	2	270	0.00	29.899 
06:25	70.4	70.4	70.4	84	65.3	0	3	270	0.00	29.899 
06:30	70.3	70.3	70.3	84	65.2	0	3	270	0.00	29.898 
06:35	70.3	70.3	70.3	84	65.2	0	2	270	0.00	29.898 
06:40	70.3	70.3	70.3	85	65.6	0	1	270	0.00	29.898 
06:45	70.3	70.3	70.3	85	65.6	0	1	270	0.00	29.904 
06:50	70.3	70.3	70.3	85	65.6	1	2	270	0.00	29.904 
06:55	70.3	70.3	70.3	85	65.6	0	2	270	0.00	29.904 
07:00	70.3	70.3	70.3	85	65.6	0	2	270	0.00	29.912 
07:05	70.4	70.4	70.4	85	65.7	0	1	270	0.00	29.912 
07:10	70.4	70.4	70.4	85	65.7	1	4	270	0.00	29.912 
07:15	70.6	70.6	70.6	85	65.9	0	2	270	0.00	29.918 
07:20	70.6	70.6	70.6	85	65.9	1	3	270	0.00	29.918 
07:25	70.8	70.8	70.8	85	66.1	0	1	270	0.00	29.918 
07:30	70.9	70.9	70.9	85	66.2	0	2	270	0.00	29.923 
07:35	71.1	71.1	71.1	84	66.0	0	2	270	0.00	29.923 
07:40	71.3	71.3	71.3	84	66.2	1	3	270	0.00	29.923 
07:45	71.6	71.6	71.6	83	66.2	1	2	270	0.00	29.926 
07:50	71.8	71.8	71.8	82	66.0	2	4	270	0.00	29.926 
07:55	72.1	72.1	72.1	82	66.3	1	5	270	0.00	29.926 
08:00	72.3	72.3	72.3	82	66.5	0	2	270	0.00	29.937 
08:05	72.5	72.5	72.5	81	66.3	1	3	270	0.00	29.937 
08:10	72.7	72.7	72.7	80	66.2	1	4	270	0.00	29.937 
08:15	72.8	72.8	72.8	80	66.3	2	4	270	0.00	29.942 
08:20	73.0	73.0	73.0	80	66.5	1	4	270	0.00	29.942 
08:25	72.8	72.8	72.8	80	66.3	1	4	270	0.00	29.942 
08:30	72.8	72.8	72.8	80	66.3	1	4	270	0.00	29.941 
08:35	72.8	72.8	72.8	80	66.3	1	4	270	0.00	29.941 
08:40	73.2	73.2	73.2	80	66.6	2	4	270	0.00	29.941 
08:45	73.2	73.2	73.2	79	66.3	2	5	270	0.00	29.941 
08:50	73.3	73.3	73.3	79	66.4	1	4	270	0.00	29.941 
08:55	73.3	73.3	73.3	79	66.4	2	4	270	0.00	29.941 
09:00	73.3	73.3	73.3	79	66.4	2	5	270	0.00	29.943 
09:05	73.2	73.2	73.2	79	66.3	2	5	270	0.00	29.943 
09:10	73.2	73.2	73.2	79	66.3	2	5	270	0.00	29.943 
09:15	73.2	73.2	73.2	79	66.3	2	4	270	0.00	29.944 
09:20	73.3	73.3	73.3	79	66.4	2	4	270	0.00	29.944 
09:25	73.5	73.5	73.5	78	66.2	2	4	270	0.00	29.944 
09:30	73.9	73.9	73.9	78	66.6	2	4	270	0.00	29.945 
09:35	74.0	74.0	74.0	77	66.3	2	4	270	0.00	29.945 
09:40	74.0	74.0	74.0	77	66.3	2	4	270	0.00	29.945 
09:45	74.4	74.4	74.4	77	66.7	2	4	270	0.00	29.945 
09:50	74.7	74.7	74.7	77	67.0	2	4	292	0.00	29.945 
09:55	75.1	75.1	76.2	76	67.0	1	3	315	0.00	29.945 
10:00	75.3	75.3	76.5	75	66.8	2	4	270	0.00	29.943 
10:05	75.8	75.8	77.1	75	67.3	1	4	292	0.00	29.943 
10:10	76.1	76.1	77.5	75	67.6	1	5	292	0.00	29.943 
10:15	76.5	76.5	78.1	73	67.2	1	3	292	0.00	29.942 
10:20	76.7	76.7	78.3	73	67.4	0	1	292	0.00	29.942 
10:25	77.0	77.0	78.8	71	66.9	1	4	270	0.00	29.942 
10:30	77.4	77.4	79.3	71	67.2	1	6	270	0.00	29.938 
10:35	77.6	77.6	79.5	70	67.0	2	6	270	0.00	29.938 
10:40	77.9	77.9	79.9	69	66.9	2	5	248	0.00	29.938 
10:45	78.5	78.5	80.7	69	67.5	1	4	270	0.00	29.934 
10:50	78.8	78.8	81.0	68	67.3	2	4	270	0.00	29.934 
10:55	79.0	79.0	81.2	67	67.1	2	6	270	0.00	29.934 
11:00	79.2	79.2	81.4	66	66.8	2	6	270	0.00	29.938 
11:05	79.0	79.0	81.1	66	66.6	3	6	270	0.00	29.938 
11:10	79.2	79.2	81.4	66	66.8	2	6	270	0.00	29.938 
11:15	79.4	79.4	81.6	66	67.0	3	6	270	0.00	29.949 
11:20	79.8	79.8	82.3	67	67.8	2	5	270	0.00	29.949 
11:25	80.3	80.3	82.8	65	67.4	1	4	270	0.00	29.949 
11:30	80.1	80.1	82.5	65	67.2	2	6	270	0.00	29.952 
11:35	80.1	80.1	82.5	65	67.2	2	4	248	0.00	29.952 
11:40	80.1	80.1	82.5	65	67.2	2	5	270	0.00	29.952 
11:45	79.8	79.8	82.1	65	67.0	2	5	270	0.00	29.962 
11:50	79.4	79.4	81.6	66	67.0	2	5	270	0.00	29.962 
11:55	79.2	79.2	81.4	66	66.8	2	6	270	0.00	29.962 
12:00	79.2	79.2	81.4	66	66.8	2	4	315	0.00	29.968 
12:05	79.2	79.2	81.5	67	67.3	2	5	248	0.00	29.968 
12:10	79.0	79.0	81.1	66	66.6	3	5	270	0.00	29.968 
12:15	79.0	79.0	81.2	67	67.1	3	6	270	0.00	29.972 
12:20	79.0	79.0	81.3	68	67.5	2	5	270	0.00	29.972 
12:25	79.2	79.2	81.5	67	67.3	2	6	270	0.00	29.972 
12:30	79.2	79.2	81.4	66	66.8	2	6	270	0.00	29.972 
12:35	79.2	79.2	81.4	66	66.8	2	6	270	0.00	29.972 
12:40	79.0	79.0	81.2	67	67.1	1	4	270	0.00	29.972 
12:45	78.8	78.8	81.0	68	67.3	1	3	270	0.00	29.971 
12:50	78.6	78.6	80.7	68	67.1	1	3	270	0.00	29.971 
12:55	78.5	78.5	80.6	68	67.0	1	3	270	0.00	29.971 
13:00	78.3	78.3	80.3	68	66.8	2	4	270	0.00	29.968 
13:05	78.5	78.5	80.6	68	67.0	1	4	270	0.00	29.968 
13:10	78.6	78.6	80.7	68	67.1	2	4	270	0.00	29.968 
13:15	78.8	78.8	81.0	68	67.3	1	2	270	0.00	29.962 
13:20	78.8	78.8	81.1	69	67.7	1	4	270	0.00	29.962 
13:25	78.8	78.8	81.1	69	67.7	1	3	270	0.00	29.962 
13:30	79.0	79.0	81.3	69	67.9	1	3	270	0.00	29.959 
13:35	79.4	79.4	81.8	68	67.9	1	3	270	0.00	29.959 
13:40	79.6	79.6	81.9	66	67.2	2	4	270	0.00	29.959 
13:45	79.6	79.6	82.0	67	67.7	1	3	270	0.00	29.958 
13:50	79.6	79.6	82.0	67	67.7	1	3	270	0.00	29.958 
13:55	79.4	79.4	81.7	67	67.5	1	3	248	0.00	29.958 
14:00	79.4	79.4	81.8	68	67.9	1	4	248	0.00	29.962 
14:05	79.6	79.6	82.0	67	67.7	1	3	270	0.00	29.962 
14:10	79.9	79.9	82.3	66	67.5	1	3	270	0.00	29.962 
14:15	80.1	80.1	82.7	67	68.1	1	3	270	0.00	29.960 
14:20	80.3	80.3	82.9	66	67.9	1	4	270	0.00	29.960 
14:25	79.9	79.9	82.3	66	67.5	1	3	270	0.00	29.960 
14:30	80.1	80.1	82.9	68	68.6	0	3	270	0.00	29.962 
14:35	80.7	80.7	83.8	68	69.1	1	3	270	0.00	29.962 
14:40	81.2	81.2	84.5	67	69.2	1	5	270	0.00	29.962 
14:45	81.4	81.4	84.4	65	68.5	1	5	270	0.00	29.958 
14:50	81.2	81.2	84.0	64	67.8	1	5	270	0.00	29.958 
14:55	81.2	81.2	84.1	65	68.3	0	2	270	0.00	29.958 
15:00	81.6	81.6	84.7	65	68.7	1	4	270	0.00	29.954 
15:05	82.0	82.0	84.8	62	67.7	2	5	270	0.00	29.954 
15:10	81.8	81.8	84.3	61	67.0	2	4	270	0.00	29.954 
15:15	81.8	81.8	84.5	62	67.5	2	4	292	0.00	29.954 
15:20	82.0	82.0	84.8	62	67.7	1	3	292	0.00	29.954 
15:25	81.6	81.6	84.2	62	67.3	1	3	248	0.00	29.954 
15:30	81.1	81.1	83.8	64	67.7	1	3	248	0.00	29.952 
15:35	80.7	80.7	83.5	66	68.3	0	1	248	0.00	29.952 
15:40	80.7	80.7	83.4	65	67.8	0	2	248	0.00	29.952 
15:45	80.3	80.3	83.0	67	68.3	0	3	248	0.00	29.952 
15:50	79.9	79.9	82.3	66	67.5	1	3	248	0.00	29.952 
15:55	79.8	79.8	82.3	67	67.8	1	3	248	0.00	29.952 
16:00	79.6	79.6	82.0	67	67.7	1	3	248	0.00	29.958 
16:05	79.6	79.6	82.1	68	68.1	0	1	248	0.00	29.958 
16:10	79.6	79.6	82.1	68	68.1	0	2	248	0.00	29.958 
16:15	79.6	79.6	82.1	68	68.1	0	2	248	0.00	29.959 
16:20	79.6	79.6	82.1	68	68.1	0	3	248	0.00	29.959 
16:25	79.6	79.6	82.1	68	68.1	0	1	248	0.00	29.959 
16:30	79.8	79.8	82.4	68	68.3	0	2	248	0.00	29.959 
16:35	79.9	79.9	82.5	67	67.9	1	4	248	0.00	29.959 
16:40	80.1	80.1	82.6	66	67.7	1	3	248	0.00	29.959 
16:45	80.1	80.1	82.6	66	67.7	1	3	248	0.00	29.959 
16:50	80.3	80.3	83.0	67	68.3	2	4	248	0.00	29.959 
16:55	80.5	80.5	83.3	67	68.5	2	4	270	0.00	29.959 
17:00	80.3	80.3	82.9	66	67.9	2	5	270	0.00	29.960 
17:05	80.1	80.1	82.9	68	68.6	1	4	292	0.00	29.960 
17:10	80.3	80.3	83.2	68	68.8	1	3	270	0.00	29.960 
17:15	80.9	80.9	84.1	68	69.3	1	3	270	0.00	29.956 
17:20	81.2	81.2	84.3	66	68.7	1	3	248	0.00	29.956 
17:25	81.6	81.6	84.7	65	68.7	1	3	248	0.00	29.956 
17:30	81.2	81.2	84.1	65	68.3	0	2	292	0.00	29.948 
17:35	80.9	80.9	83.8	66	68.4	1	3	315	0.00	29.948 
17:40	80.5	80.5	83.3	67	68.5	1	2	315	0.00	29.948 
17:45	80.3	80.3	82.9	66	67.9	1	4	292	0.00	29.956 
17:50	80.1	80.1	82.7	67	68.1	1	4	292	0.00	29.956 
17:55	80.3	80.3	83.0	67	68.3	1	3	292	0.00	29.956 
18:00	80.3	80.3	82.8	65	67.4	1	2	292	0.00	29.944 
18:05	80.7	80.7	83.5	66	68.3	1	3	292	0.00	29.944 
18:10	81.1	81.1	84.0	65	68.2	1	3	315	0.00	29.944 
18:15	81.2	81.2	84.3	66	68.7	0	2	315	0.00	29.938 
18:20	81.1	81.1	84.0	65	68.2	0	1	315	0.00	29.938 
18:25	81.1	81.1	84.1	66	68.6	0	1	315	0.00	29.938 
18:30	81.2	81.2	84.0	64	67.8	0	3	315	0.00	29.933 
18:35	81.6	81.6	84.6	64	68.2	0	2	315	0.00	29.933 
18:40	81.8	81.8	84.9	64	68.4	0	2	315	0.00	29.933 
18:45	81.8	81.8	84.7	63	67.9	0	2	315	0.00	29.929 
18:50	81.6	81.6	84.4	63	67.8	0	2	315	0.00	29.929 
18:55	81.6	81.6	84.4	63	67.8	1	2	315	0.00	29.929 
19:00	81.6	81.6	84.6	64	68.2	0	2	315	0.00	29.927 
19:05	81.6	81.6	84.6	64	68.2	0	2	315	0.00	29.927 
19:10	81.6	81.6	84.7	65	68.7	0	1	315	0.00	29.927 
19:15	81.6	81.6	84.4	63	67.8	0	3	248	0.00	29.926 
19:20	81.6	81.6	84.4	63	67.8	0	2	248	0.00	29.926 
19:25	81.6	81.6	84.6	64	68.2	0	1	248	0.00	29.926 
19:30	81.6	81.6	84.4	63	67.8	0	2	248	0.00	29.927 
19:35	81.6	81.6	84.6	64	68.2	0	1	248	0.00	29.927 
19:40	81.4	81.4	84.4	65	68.5	0	1	248	0.00	29.927 
19:45	81.2	81.2	84.1	65	68.3	0	2	248	0.00	29.929 
19:50	81.2	81.2	84.3	66	68.7	0	1	248	0.00	29.929 
19:55	81.1	81.1	84.1	66	68.6	0	2	248	0.00	29.929 
20:00	80.9	80.9	83.7	65	68.0	0	2	248	0.00	29.930 
20:05	80.9	80.9	83.7	65	68.0	0	2	248	0.00	29.930 
20:10	80.7	80.7	83.2	64	67.4	0	3	248	0.00	29.930 
20:15	80.5	80.5	83.1	65	67.6	0	2	22	0.00	29.927 
20:20	80.3	80.3	82.8	65	67.4	0	2	315	0.00	29.927 
20:25	80.3	80.3	83.0	67	68.3	0	1	315	0.00	29.927 
20:30	80.1	80.1	82.7	67	68.1	0	2	292	0.00	29.929 
20:35	79.9	79.9	82.6	68	68.4	0	1	292	0.00	29.929 
20:40	79.6	79.6	82.2	69	68.5	0	1	292	0.00	29.929 
20:45	79.2	79.2	81.7	70	68.5	0	1	292	0.00	29.928 
20:50	79.0	79.0	81.5	71	68.8	0	1	292	0.00	29.928 
20:55	78.8	78.8	81.3	72	69.0	0	1	292	0.00	29.928 
21:00	78.5	78.5	80.9	73	69.1	0	1	292	0.00	29.929 
21:05	78.3	78.3	80.6	73	68.9	0	1	292	0.00	29.929 
21:10	78.1	78.1	80.3	73	68.7	0	2	292	0.00	29.929 
21:15	77.9	77.9	80.0	74	68.9	0	0	---	0.00	29.932 
21:20	77.7	77.7	79.7	75	69.1	0	1	292	0.00	29.932 
21:25	77.6	77.6	79.6	75	69.0	0	0	---	0.00	29.932 
21:30	77.4	77.4	79.3	76	69.2	0	1	292	0.00	29.938 
21:35	77.2	77.2	79.0	76	69.0	0	0	---	0.00	29.938 
21:40	77.0	77.0	78.7	76	68.8	0	0	---	0.00	29.938 
21:45	76.8	76.8	78.4	77	69.0	0	0	---	0.00	29.943 
21:50	76.7	76.7	78.2	77	68.9	0	0	---	0.00	29.943 
21:55	76.7	76.7	78.2	77	68.9	0	0	---	0.00	29.943 
22:00	76.5	76.5	77.9	78	69.1	0	0	---	0.00	29.952 
22:05	76.3	76.3	77.6	78	68.9	0	0	---	0.00	29.952 
22:10	76.3	76.3	77.6	78	68.9	0	0	---	0.00	29.952 
22:15	76.3	76.3	77.5	79	69.3	0	0	---	0.00	29.957 
22:20	76.1	76.1	77.2	79	69.1	0	0	---	0.00	29.957 
22:25	76.0	76.0	77.1	79	69.0	0	1	292	0.00	29.957 
22:30	76.0	76.0	77.0	80	69.4	0	1	292	0.00	29.961 
22:35	76.0	76.0	77.0	80	69.4	0	1	292	0.00	29.961 
22:40	76.0	76.0	77.0	80	69.4	0	0	---	0.00	29.961 
22:45	76.0	76.0	77.0	80	69.4	0	0	---	0.00	29.962 
22:50	75.8	75.8	76.6	81	69.5	0	1	292	0.00	29.962 
22:55	75.8	75.8	76.6	81	69.5	0	1	292	0.00	29.962 
23:00	75.8	75.8	76.6	81	69.5	0	0	---	0.00	29.963 
23:05	75.6	75.6	76.3	81	69.3	0	0	---	0.00	29.963 
23:10	75.4	75.4	76.0	81	69.1	0	0	---	0.00	29.963 
23:15	75.4	75.4	75.9	82	69.5	0	1	292	0.00	29.965 
23:20	75.4	75.4	75.9	82	69.5	0	1	292	0.00	29.965 
23:25	75.3	75.3	75.8	82	69.4	0	1	292	0.00	29.965 
23:30	75.3	75.3	75.8	82	69.4	0	0	---	0.00	29.961 
23:35	75.1	75.1	75.5	82	69.2	0	0	---	0.00	29.961 
23:40	75.1	75.1	75.5	82	69.2	0	1	292	0.00	29.961 
23:45	74.9	74.9	74.9	82	69.0	0	0	---	0.00	29.957 
23:50	74.9	74.9	74.9	82	69.0	0	0	---	0.00	29.957 
23:55	74.7	74.7	74.7	83	69.2	0	0	---	0.00	29.957 

CoCoRaHS
IN-AL-39
A2 Web Hosting
Creative Commons License
GoDaddy
search engine by freefind advanced

loaded 2018-11-17 11:55:22 • last modified 2010-11-18 10:43:29
Privacy PolicyDisclaimer
• wx.awcolley.com is powered by PmWiki v.2002016 •
• all content (unless otherwise noted) © 2018 A W Colley